Estación de Pirque
Ultimos registro cada 15 minutos 53
| N° | Estación | Fecha / Hora | Temperatura | Humedad | Lluvia | Velocidad | Dirección | Radiación | Presion |
| 53 | Pirque | 10-05-2026 13:00 | 28,9 | 21,3 | 0 | 0 | 296 | 635,6 | 936,6 |
| 52 | Pirque | 10-05-2026 12:45 | 28,2 | 24 | 0 | 0 | 298 | 633,1 | 936,9 |
| 51 | Pirque | 10-05-2026 12:30 | 28,3 | 23,9 | 0 | 0 | 298 | 633,1 | 936,8 |
| 50 | Pirque | 10-05-2026 12:15 | 27,1 | 24,6 | 0 | 0,5 | 298 | 628,1 | 936,8 |
| 49 | Pirque | 10-05-2026 12:00 | 26,3 | 25 | 0 | 0 | 295 | 616,9 | 937 |
| 48 | Pirque | 10-05-2026 11:45 | 26,4 | 27,6 | 0 | 0 | 299 | 603,1 | 937,1 |
| 47 | Pirque | 10-05-2026 11:30 | 25,7 | 27,1 | 0 | 0 | 298 | 585,6 | 937,2 |
| 46 | Pirque | 10-05-2026 11:15 | 24,9 | 29,8 | 0 | 0 | 296 | 568,1 | 937,2 |
| 45 | Pirque | 10-05-2026 11:00 | 24,5 | 32,6 | 0 | 0 | 295 | 540,6 | 937,2 |
| 44 | Pirque | 10-05-2026 10:45 | 23,3 | 35,4 | 0 | 0 | 293 | 514,4 | 937,2 |
| 43 | Pirque | 10-05-2026 10:30 | 22,4 | 37 | 0 | 0 | 298 | 486,9 | 937,1 |
| 42 | Pirque | 10-05-2026 10:15 | 21,2 | 39,6 | 0 | 0 | 299 | 454,4 | 936,9 |
| 41 | Pirque | 10-05-2026 10:00 | 20,9 | 36,1 | 0 | 0 | 299 | 419,4 | 936,8 |
| 40 | Pirque | 10-05-2026 09:45 | 19,5 | 44,3 | 0 | 0 | 299 | 381,9 | 936,8 |
| 39 | Pirque | 10-05-2026 09:30 | 15,3 | 55,1 | 0 | 0 | 295 | 339,4 | 937,1 |
| 38 | Pirque | 10-05-2026 09:15 | 14 | 64,3 | 0 | 0 | 293 | 294,4 | 937,2 |
| 37 | Pirque | 10-05-2026 09:00 | 10,7 | 74,1 | 0 | 0 | 298 | 246,9 | 937 |
| 36 | Pirque | 10-05-2026 08:45 | 7,9 | 78,4 | 0 | 0 | 299 | 209,4 | 937,1 |
| 35 | Pirque | 10-05-2026 08:30 | 5 | 83,2 | 0 | 0 | 295 | 171,9 | 937,3 |
| 34 | Pirque | 10-05-2026 08:15 | 3,2 | 87,5 | 0 | 0 | 292 | 131,9 | 937,3 |
| 33 | Pirque | 10-05-2026 08:00 | 1,6 | 92,1 | 0 | 0 | 292 | 71,9 | 937,2 |
| 32 | Pirque | 10-05-2026 07:45 | -0,1 | 92 | 0 | 0 | 292 | 9,4 | 937,1 |
| 31 | Pirque | 10-05-2026 07:30 | -0,6 | 93,1 | 0 | 0 | 291 | 4,4 | 936,9 |
| 30 | Pirque | 10-05-2026 07:15 | -0,6 | 92,5 | 0 | 0 | 291 | 0,6 | 937 |
| 29 | Pirque | 10-05-2026 07:00 | -0,6 | 92,4 | 0 | 0 | 291 | 0,6 | 937,1 |
| 28 | Pirque | 10-05-2026 06:45 | -0,4 | 93,4 | 0 | 0 | 291 | 0,6 | 936,9 |
| 27 | Pirque | 10-05-2026 06:30 | -0,6 | 93,2 | 0 | 0 | 291 | 0,6 | 937,1 |
| 26 | Pirque | 10-05-2026 06:15 | -0,5 | 92,9 | 0 | 0 | 291 | 0,6 | 937,3 |
| 25 | Pirque | 10-05-2026 06:00 | -0,5 | 92,5 | 0 | 0 | 291 | 0,6 | 937,2 |
| 24 | Pirque | 10-05-2026 05:45 | 0,3 | 91,9 | 0 | 0 | 291 | 0,6 | 937,2 |
| 23 | Pirque | 10-05-2026 05:30 | 0,1 | 92 | 0 | 0 | 291 | 0,6 | 937 |
| 22 | Pirque | 10-05-2026 05:15 | -0,5 | 92,7 | 0 | 0 | 291 | 0,6 | 937 |
| 21 | Pirque | 10-05-2026 05:00 | -0,2 | 92,7 | 0 | 0 | 291 | 0,6 | 937,2 |
| 20 | Pirque | 10-05-2026 04:45 | 0,2 | 92,7 | 0 | 0 | 291 | 0,6 | 937 |
| 19 | Pirque | 10-05-2026 04:30 | 0,4 | 92 | 0 | 0 | 291 | 0,6 | 937 |
| 18 | Pirque | 10-05-2026 04:15 | 0,5 | 93,5 | 0 | 0 | 291 | 0,6 | 937,2 |
| 17 | Pirque | 10-05-2026 04:00 | -0,4 | 93,9 | 0 | 0 | 291 | 0,6 | 937,1 |
| 16 | Pirque | 10-05-2026 03:45 | -0,3 | 93,2 | 0 | 0 | 291 | 0,6 | 937,4 |
| 15 | Pirque | 10-05-2026 03:30 | 0,2 | 93,1 | 0 | 0 | 291 | 0,6 | 937,3 |
| 14 | Pirque | 10-05-2026 03:15 | 0,3 | 93,1 | 0 | 0 | 291 | 0,6 | 937,5 |
| 13 | Pirque | 10-05-2026 03:00 | 0,7 | 93,3 | 0 | 0 | 291 | 0,6 | 937,5 |
| 12 | Pirque | 10-05-2026 02:45 | 0,8 | 93,7 | 0 | 0 | 291 | 0,6 | 937,4 |
| 11 | Pirque | 10-05-2026 02:30 | 1 | 94,1 | 0 | 0 | 291 | 0,6 | 937,7 |
| 10 | Pirque | 10-05-2026 02:15 | 1 | 93,8 | 0 | 0 | 291 | 0,6 | 937,9 |
| 9 | Pirque | 10-05-2026 02:00 | 0,7 | 93,7 | 0 | 0 | 291 | 0,6 | 938 |
| 8 | Pirque | 10-05-2026 01:45 | 1 | 93,5 | 0 | 0 | 291 | 0,6 | 938,1 |
| 7 | Pirque | 10-05-2026 01:30 | 0,5 | 92,9 | 0 | 0 | 291 | 0,6 | 938,2 |
| 6 | Pirque | 10-05-2026 01:15 | 1,2 | 92,8 | 0 | 0 | 291 | 0,6 | 938,1 |
| 5 | Pirque | 10-05-2026 01:00 | 1,8 | 92,6 | 0 | 0 | 291 | 0,6 | 938 |
| 4 | Pirque | 10-05-2026 00:45 | 1,7 | 93 | 0 | 0 | 291 | 0,6 | 938,2 |
| 3 | Pirque | 10-05-2026 00:30 | 1,4 | 92,6 | 0 | 0 | 291 | 0,6 | 938,4 |
| 2 | Pirque | 10-05-2026 00:15 | 1,9 | 92,5 | 0 | 0 | 291 | 0,6 | 938,4 |
| 1 | Pirque | 10-05-2026 00:00 | 1,9 | 92,4 | 0 | 0 | 291 | 0,6 | 938,4 |